sensor_id;sensor_type;location;lat;lon;timestamp;P1;durP1;ratioP1;P2;durP2;ratioP2
14849;SDS011;7517;48.400;11.770;2022-09-27T00:00:17;0.90;;;0.63;;
14849;SDS011;7517;48.400;11.770;2022-09-27T00:02:46;0.70;;;0.70;;
14849;SDS011;7517;48.400;11.770;2022-09-27T00:05:13;0.60;;;0.60;;
14849;SDS011;7517;48.400;11.770;2022-09-27T00:07:41;1.07;;;0.60;;
14849;SDS011;7517;48.400;11.770;2022-09-27T00:10:09;0.53;;;0.53;;
14849;SDS011;7517;48.400;11.770;2022-09-27T00:12:37;1.47;;;0.90;;
14849;SDS011;7517;48.400;11.770;2022-09-27T00:15:06;0.60;;;0.60;;
14849;SDS011;7517;48.400;11.770;2022-09-27T00:17:35;1.90;;;0.90;;
14849;SDS011;7517;48.400;11.770;2022-09-27T00:20:05;1.37;;;1.27;;
14849;SDS011;7517;48.400;11.770;2022-09-27T00:22:33;0.60;;;0.60;;
14849;SDS011;7517;48.400;11.770;2022-09-27T00:25:01;0.80;;;0.80;;
14849;SDS011;7517;48.400;11.770;2022-09-27T00:27:30;0.63;;;0.60;;
14849;SDS011;7517;48.400;11.770;2022-09-27T00:29:57;0.60;;;0.60;;
14849;SDS011;7517;48.400;11.770;2022-09-27T00:32:24;0.63;;;0.63;;
14849;SDS011;7517;48.400;11.770;2022-09-27T00:34:51;0.60;;;0.60;;
14849;SDS011;7517;48.400;11.770;2022-09-27T00:37:20;0.67;;;0.67;;
14849;SDS011;7517;48.400;11.770;2022-09-27T00:39:47;0.67;;;0.67;;
14849;SDS011;7517;48.400;11.770;2022-09-27T00:42:14;1.20;;;0.80;;
14849;SDS011;7517;48.400;11.770;2022-09-27T00:44:48;1.03;;;0.93;;
14849;SDS011;7517;48.400;11.770;2022-09-27T00:47:31;0.60;;;0.60;;
14849;SDS011;7517;48.400;11.770;2022-09-27T00:50:07;0.97;;;0.83;;
14849;SDS011;7517;48.400;11.770;2022-09-27T00:52:49;0.80;;;0.80;;
14849;SDS011;7517;48.400;11.770;2022-09-27T00:55:25;1.40;;;0.73;;
14849;SDS011;7517;48.400;11.770;2022-09-27T00:57:58;1.40;;;0.70;;
14849;SDS011;7517;48.400;11.770;2022-09-27T01:00:27;0.40;;;0.40;;
14849;SDS011;7517;48.400;11.770;2022-09-27T01:02:54;0.60;;;0.60;;
14849;SDS011;7517;48.400;11.770;2022-09-27T01:05:23;0.60;;;0.60;;
14849;SDS011;7517;48.400;11.770;2022-09-27T01:07:54;0.77;;;0.77;;
14849;SDS011;7517;48.400;11.770;2022-09-27T01:10:24;0.50;;;0.50;;
14849;SDS011;7517;48.400;11.770;2022-09-27T01:13:02;0.90;;;0.70;;
14849;SDS011;7517;48.400;11.770;2022-09-27T01:15:44;0.63;;;0.63;;
14849;SDS011;7517;48.400;11.770;2022-09-27T01:18:26;0.70;;;0.70;;
14849;SDS011;7517;48.400;11.770;2022-09-27T01:21:22;1.13;;;0.77;;
14849;SDS011;7517;48.400;11.770;2022-09-27T01:24:23;0.67;;;0.63;;
14849;SDS011;7517;48.400;11.770;2022-09-27T01:30:46;0.63;;;0.63;;
14849;SDS011;7517;48.400;11.770;2022-09-27T01:33:24;1.20;;;0.60;;
14849;SDS011;7517;48.400;11.770;2022-09-27T01:36:16;1.50;;;0.60;;
14849;SDS011;7517;48.400;11.770;2022-09-27T01:38:56;0.60;;;0.60;;
14849;SDS011;7517;48.400;11.770;2022-09-27T01:41:51;0.70;;;0.70;;
14849;SDS011;7517;48.400;11.770;2022-09-27T01:44:28;1.00;;;0.90;;
14849;SDS011;7517;48.400;11.770;2022-09-27T01:47:06;0.60;;;0.60;;
14849;SDS011;7517;48.400;11.770;2022-09-27T01:49:44;0.70;;;0.70;;
14849;SDS011;7517;48.400;11.770;2022-09-27T01:52:20;0.60;;;0.60;;
14849;SDS011;7517;48.400;11.770;2022-09-27T01:54:53;0.87;;;0.70;;
14849;SDS011;7517;48.400;11.770;2022-09-27T01:57:26;0.70;;;0.70;;
14849;SDS011;7517;48.400;11.770;2022-09-27T02:00:02;1.10;;;1.00;;
14849;SDS011;7517;48.400;11.770;2022-09-27T02:02:34;0.77;;;0.70;;
14849;SDS011;7517;48.400;11.770;2022-09-27T02:05:07;0.83;;;0.83;;
14849;SDS011;7517;48.400;11.770;2022-09-27T02:07:42;0.70;;;0.60;;
14849;SDS011;7517;48.400;11.770;2022-09-27T02:10:17;0.63;;;0.63;;
14849;SDS011;7517;48.400;11.770;2022-09-27T02:12:50;1.00;;;0.80;;
14849;SDS011;7517;48.400;11.770;2022-09-27T02:15:25;0.70;;;0.70;;
14849;SDS011;7517;48.400;11.770;2022-09-27T02:18:00;1.90;;;1.03;;
14849;SDS011;7517;48.400;11.770;2022-09-27T02:20:36;0.83;;;0.83;;
14849;SDS011;7517;48.400;11.770;2022-09-27T02:23:21;0.60;;;0.60;;
14849;SDS011;7517;48.400;11.770;2022-09-27T02:25:58;0.80;;;0.80;;
14849;SDS011;7517;48.400;11.770;2022-09-27T02:28:32;1.20;;;1.00;;
14849;SDS011;7517;48.400;11.770;2022-09-27T02:31:06;1.27;;;0.90;;
14849;SDS011;7517;48.400;11.770;2022-09-27T02:33:36;0.90;;;0.90;;
14849;SDS011;7517;48.400;11.770;2022-09-27T02:36:09;0.90;;;0.90;;
14849;SDS011;7517;48.400;11.770;2022-09-27T02:38:37;0.80;;;0.80;;
14849;SDS011;7517;48.400;11.770;2022-09-27T02:41:11;0.90;;;0.87;;
14849;SDS011;7517;48.400;11.770;2022-09-27T02:43:40;0.97;;;0.70;;
14849;SDS011;7517;48.400;11.770;2022-09-27T02:46:17;0.73;;;0.73;;
14849;SDS011;7517;48.400;11.770;2022-09-27T02:49:12;0.80;;;0.70;;
14849;SDS011;7517;48.400;11.770;2022-09-27T02:51:59;0.90;;;0.80;;
14849;SDS011;7517;48.400;11.770;2022-09-27T02:54:39;0.50;;;0.50;;
14849;SDS011;7517;48.400;11.770;2022-09-27T02:57:22;0.70;;;0.70;;
14849;SDS011;7517;48.400;11.770;2022-09-27T03:00:04;0.90;;;0.63;;
14849;SDS011;7517;48.400;11.770;2022-09-27T03:02:39;0.80;;;0.63;;
14849;SDS011;7517;48.400;11.770;2022-09-27T03:05:20;0.73;;;0.60;;
14849;SDS011;7517;48.400;11.770;2022-09-27T03:07:50;1.13;;;0.70;;
14849;SDS011;7517;48.400;11.770;2022-09-27T03:10:18;0.50;;;0.50;;
14849;SDS011;7517;48.400;11.770;2022-09-27T03:12:48;1.70;;;0.63;;
14849;SDS011;7517;48.400;11.770;2022-09-27T03:15:17;0.77;;;0.77;;
14849;SDS011;7517;48.400;11.770;2022-09-27T03:17:44;0.50;;;0.50;;
14849;SDS011;7517;48.400;11.770;2022-09-27T03:20:12;0.70;;;0.60;;
14849;SDS011;7517;48.400;11.770;2022-09-27T03:22:40;1.17;;;0.60;;
14849;SDS011;7517;48.400;11.770;2022-09-27T03:25:08;0.60;;;0.60;;
14849;SDS011;7517;48.400;11.770;2022-09-27T03:27:35;0.67;;;0.67;;
14849;SDS011;7517;48.400;11.770;2022-09-27T03:30:02;0.50;;;0.50;;
14849;SDS011;7517;48.400;11.770;2022-09-27T03:32:31;0.67;;;0.67;;
14849;SDS011;7517;48.400;11.770;2022-09-27T03:34:58;0.50;;;0.50;;
14849;SDS011;7517;48.400;11.770;2022-09-27T03:37:26;0.43;;;0.43;;
14849;SDS011;7517;48.400;11.770;2022-09-27T03:39:55;0.73;;;0.57;;
14849;SDS011;7517;48.400;11.770;2022-09-27T03:42:22;0.50;;;0.50;;
14849;SDS011;7517;48.400;11.770;2022-09-27T03:44:49;0.40;;;0.40;;
14849;SDS011;7517;48.400;11.770;2022-09-27T03:47:16;0.80;;;0.80;;
14849;SDS011;7517;48.400;11.770;2022-09-27T03:49:43;0.80;;;0.50;;
14849;SDS011;7517;48.400;11.770;2022-09-27T03:52:11;0.63;;;0.60;;
14849;SDS011;7517;48.400;11.770;2022-09-27T03:54:38;0.47;;;0.40;;
14849;SDS011;7517;48.400;11.770;2022-09-27T03:57:07;0.70;;;0.70;;
14849;SDS011;7517;48.400;11.770;2022-09-27T03:59:34;0.80;;;0.80;;
14849;SDS011;7517;48.400;11.770;2022-09-27T04:02:01;0.87;;;0.87;;
14849;SDS011;7517;48.400;11.770;2022-09-27T04:04:28;0.97;;;0.97;;
14849;SDS011;7517;48.400;11.770;2022-09-27T04:06:56;2.03;;;0.80;;
14849;SDS011;7517;48.400;11.770;2022-09-27T04:09:24;1.40;;;1.03;;
14849;SDS011;7517;48.400;11.770;2022-09-27T04:11:51;1.33;;;0.90;;
14849;SDS011;7517;48.400;11.770;2022-09-27T04:14:20;2.93;;;1.10;;
14849;SDS011;7517;48.400;11.770;2022-09-27T04:19:17;0.80;;;0.80;;
14849;SDS011;7517;48.400;11.770;2022-09-27T04:21:44;0.67;;;0.67;;
14849;SDS011;7517;48.400;11.770;2022-09-27T04:24:11;1.30;;;1.03;;
14849;SDS011;7517;48.400;11.770;2022-09-27T04:26:38;0.90;;;0.90;;
14849;SDS011;7517;48.400;11.770;2022-09-27T04:29:06;1.00;;;0.90;;
14849;SDS011;7517;48.400;11.770;2022-09-27T04:31:35;1.10;;;1.00;;
14849;SDS011;7517;48.400;11.770;2022-09-27T04:34:03;0.80;;;0.80;;
14849;SDS011;7517;48.400;11.770;2022-09-27T04:36:31;0.80;;;0.80;;
14849;SDS011;7517;48.400;11.770;2022-09-27T04:38:58;0.73;;;0.73;;
14849;SDS011;7517;48.400;11.770;2022-09-27T04:41:29;0.67;;;0.53;;
14849;SDS011;7517;48.400;11.770;2022-09-27T04:43:57;0.70;;;0.70;;
14849;SDS011;7517;48.400;11.770;2022-09-27T04:46:25;0.50;;;0.50;;
14849;SDS011;7517;48.400;11.770;2022-09-27T04:48:57;1.00;;;0.90;;
14849;SDS011;7517;48.400;11.770;2022-09-27T04:51:24;1.03;;;0.90;;
14849;SDS011;7517;48.400;11.770;2022-09-27T04:53:52;0.67;;;0.53;;
14849;SDS011;7517;48.400;11.770;2022-09-27T04:56:22;0.80;;;0.80;;
14849;SDS011;7517;48.400;11.770;2022-09-27T04:58:49;0.80;;;0.80;;
14849;SDS011;7517;48.400;11.770;2022-09-27T05:01:16;0.60;;;0.60;;
14849;SDS011;7517;48.400;11.770;2022-09-27T05:03:43;0.70;;;0.70;;
14849;SDS011;7517;48.400;11.770;2022-09-27T05:06:12;0.87;;;0.67;;
14849;SDS011;7517;48.400;11.770;2022-09-27T05:08:39;0.50;;;0.50;;
14849;SDS011;7517;48.400;11.770;2022-09-27T05:11:06;0.60;;;0.60;;
14849;SDS011;7517;48.400;11.770;2022-09-27T05:13:34;0.47;;;0.40;;
14849;SDS011;7517;48.400;11.770;2022-09-27T05:16:01;0.40;;;0.40;;
14849;SDS011;7517;48.400;11.770;2022-09-27T05:18:31;0.60;;;0.60;;
14849;SDS011;7517;48.400;11.770;2022-09-27T05:20:59;0.40;;;0.40;;
14849;SDS011;7517;48.400;11.770;2022-09-27T05:23:27;0.60;;;0.43;;
14849;SDS011;7517;48.400;11.770;2022-09-27T05:25:54;0.27;;;0.27;;
14849;SDS011;7517;48.400;11.770;2022-09-27T05:28:22;0.80;;;0.60;;
14849;SDS011;7517;48.400;11.770;2022-09-27T05:30:49;0.30;;;0.30;;
14849;SDS011;7517;48.400;11.770;2022-09-27T05:33:16;0.83;;;0.30;;
14849;SDS011;7517;48.400;11.770;2022-09-27T05:35:49;0.40;;;0.40;;
14849;SDS011;7517;48.400;11.770;2022-09-27T05:38:18;0.40;;;0.40;;
14849;SDS011;7517;48.400;11.770;2022-09-27T05:40:50;0.40;;;0.40;;
14849;SDS011;7517;48.400;11.770;2022-09-27T05:43:17;0.30;;;0.30;;
14849;SDS011;7517;48.400;11.770;2022-09-27T05:45:45;0.87;;;0.43;;
14849;SDS011;7517;48.400;11.770;2022-09-27T05:48:13;0.43;;;0.43;;
14849;SDS011;7517;48.400;11.770;2022-09-27T05:50:40;0.23;;;0.23;;
14849;SDS011;7517;48.400;11.770;2022-09-27T05:53:08;0.83;;;0.30;;
14849;SDS011;7517;48.400;11.770;2022-09-27T05:55:35;0.30;;;0.30;;
14849;SDS011;7517;48.400;11.770;2022-09-27T05:58:04;0.63;;;0.50;;
14849;SDS011;7517;48.400;11.770;2022-09-27T06:00:34;0.57;;;0.30;;
14849;SDS011;7517;48.400;11.770;2022-09-27T06:03:05;0.40;;;0.20;;
14849;SDS011;7517;48.400;11.770;2022-09-27T06:05:33;0.43;;;0.20;;
14849;SDS011;7517;48.400;11.770;2022-09-27T06:08:03;0.40;;;0.40;;
14849;SDS011;7517;48.400;11.770;2022-09-27T06:10:33;0.30;;;0.30;;
14849;SDS011;7517;48.400;11.770;2022-09-27T06:13:05;0.20;;;0.20;;
14849;SDS011;7517;48.400;11.770;2022-09-27T06:15:36;0.47;;;0.23;;
14849;SDS011;7517;48.400;11.770;2022-09-27T06:18:07;0.40;;;0.40;;
14849;SDS011;7517;48.400;11.770;2022-09-27T06:20:37;0.33;;;0.20;;
14849;SDS011;7517;48.400;11.770;2022-09-27T06:23:07;0.20;;;0.20;;
14849;SDS011;7517;48.400;11.770;2022-09-27T06:25:37;0.47;;;0.20;;
14849;SDS011;7517;48.400;11.770;2022-09-27T06:28:07;0.40;;;0.40;;
14849;SDS011;7517;48.400;11.770;2022-09-27T06:30:37;0.27;;;0.23;;
14849;SDS011;7517;48.400;11.770;2022-09-27T06:33:06;0.30;;;0.30;;
14849;SDS011;7517;48.400;11.770;2022-09-27T06:35:37;0.53;;;0.30;;
14849;SDS011;7517;48.400;11.770;2022-09-27T06:38:06;0.50;;;0.50;;
14849;SDS011;7517;48.400;11.770;2022-09-27T06:40:36;0.30;;;0.30;;
14849;SDS011;7517;48.400;11.770;2022-09-27T06:43:04;0.23;;;0.23;;
14849;SDS011;7517;48.400;11.770;2022-09-27T06:45:35;0.20;;;0.20;;
14849;SDS011;7517;48.400;11.770;2022-09-27T06:48:04;0.80;;;0.40;;
14849;SDS011;7517;48.400;11.770;2022-09-27T06:50:34;0.73;;;0.53;;
14849;SDS011;7517;48.400;11.770;2022-09-27T06:53:03;0.20;;;0.20;;
14849;SDS011;7517;48.400;11.770;2022-09-27T06:55:33;0.30;;;0.30;;
14849;SDS011;7517;48.400;11.770;2022-09-27T06:58:00;1.70;;;0.40;;
14849;SDS011;7517;48.400;11.770;2022-09-27T07:00:52;0.30;;;0.30;;
14849;SDS011;7517;48.400;11.770;2022-09-27T07:03:20;3.40;;;0.50;;
14849;SDS011;7517;48.400;11.770;2022-09-27T07:05:53;0.40;;;0.40;;
14849;SDS011;7517;48.400;11.770;2022-09-27T07:08:23;2.50;;;0.37;;
14849;SDS011;7517;48.400;11.770;2022-09-27T07:10:53;0.30;;;0.30;;
14849;SDS011;7517;48.400;11.770;2022-09-27T07:13:21;0.30;;;0.30;;
14849;SDS011;7517;48.400;11.770;2022-09-27T07:15:50;0.40;;;0.40;;
14849;SDS011;7517;48.400;11.770;2022-09-27T07:18:19;3.47;;;0.80;;
14849;SDS011;7517;48.400;11.770;2022-09-27T07:20:46;0.63;;;0.43;;
14849;SDS011;7517;48.400;11.770;2022-09-27T07:23:14;0.83;;;0.30;;
14849;SDS011;7517;48.400;11.770;2022-09-27T07:25:42;0.73;;;0.40;;
14849;SDS011;7517;48.400;11.770;2022-09-27T07:28:11;0.67;;;0.30;;
14849;SDS011;7517;48.400;11.770;2022-09-27T07:30:41;0.60;;;0.57;;
14849;SDS011;7517;48.400;11.770;2022-09-27T07:33:10;1.50;;;0.60;;
14849;SDS011;7517;48.400;11.770;2022-09-27T07:35:38;0.30;;;0.30;;
14849;SDS011;7517;48.400;11.770;2022-09-27T07:38:08;0.77;;;0.30;;
14849;SDS011;7517;48.400;11.770;2022-09-27T07:40:38;0.40;;;0.30;;
14849;SDS011;7517;48.400;11.770;2022-09-27T07:43:06;0.23;;;0.20;;
14849;SDS011;7517;48.400;11.770;2022-09-27T07:45:34;0.47;;;0.30;;
14849;SDS011;7517;48.400;11.770;2022-09-27T07:48:03;1.00;;;0.30;;
14849;SDS011;7517;48.400;11.770;2022-09-27T07:50:32;0.30;;;0.30;;
14849;SDS011;7517;48.400;11.770;2022-09-27T07:53:00;0.80;;;0.40;;
14849;SDS011;7517;48.400;11.770;2022-09-27T07:55:28;0.87;;;0.30;;
14849;SDS011;7517;48.400;11.770;2022-09-27T07:58:01;0.40;;;0.30;;
14849;SDS011;7517;48.400;11.770;2022-09-27T08:00:30;0.77;;;0.30;;
14849;SDS011;7517;48.400;11.770;2022-09-27T08:02:57;1.30;;;0.60;;
14849;SDS011;7517;48.400;11.770;2022-09-27T08:05:30;1.50;;;0.53;;
14849;SDS011;7517;48.400;11.770;2022-09-27T08:07:58;1.07;;;0.50;;
14849;SDS011;7517;48.400;11.770;2022-09-27T08:10:26;0.47;;;0.30;;
14849;SDS011;7517;48.400;11.770;2022-09-27T08:12:55;0.50;;;0.50;;
14849;SDS011;7517;48.400;11.770;2022-09-27T08:15:23;0.30;;;0.17;;
14849;SDS011;7517;48.400;11.770;2022-09-27T08:17:52;1.70;;;0.40;;
14849;SDS011;7517;48.400;11.770;2022-09-27T08:20:20;0.47;;;0.30;;
14849;SDS011;7517;48.400;11.770;2022-09-27T08:22:47;0.27;;;0.27;;
14849;SDS011;7517;48.400;11.770;2022-09-27T08:25:16;0.57;;;0.30;;
14849;SDS011;7517;48.400;11.770;2022-09-27T08:27:43;0.50;;;0.37;;
14849;SDS011;7517;48.400;11.770;2022-09-27T08:30:21;0.40;;;0.30;;
14849;SDS011;7517;48.400;11.770;2022-09-27T08:32:53;0.83;;;0.37;;
14849;SDS011;7517;48.400;11.770;2022-09-27T08:35:21;0.70;;;0.40;;
14849;SDS011;7517;48.400;11.770;2022-09-27T08:37:52;0.90;;;0.47;;
14849;SDS011;7517;48.400;11.770;2022-09-27T08:40:22;0.87;;;0.30;;
14849;SDS011;7517;48.400;11.770;2022-09-27T08:42:58;0.50;;;0.40;;
14849;SDS011;7517;48.400;11.770;2022-09-27T08:45:37;0.43;;;0.30;;
14849;SDS011;7517;48.400;11.770;2022-09-27T08:48:19;0.30;;;0.27;;
14849;SDS011;7517;48.400;11.770;2022-09-27T08:50:47;0.53;;;0.30;;
14849;SDS011;7517;48.400;11.770;2022-09-27T08:53:17;0.30;;;0.30;;
14849;SDS011;7517;48.400;11.770;2022-09-27T08:55:53;0.40;;;0.37;;
14849;SDS011;7517;48.400;11.770;2022-09-27T08:58:24;0.93;;;0.30;;
14849;SDS011;7517;48.400;11.770;2022-09-27T09:00:54;0.57;;;0.50;;
14849;SDS011;7517;48.400;11.770;2022-09-27T09:03:28;0.60;;;0.50;;
14849;SDS011;7517;48.400;11.770;2022-09-27T09:06:03;1.00;;;0.50;;
14849;SDS011;7517;48.400;11.770;2022-09-27T09:08:42;0.40;;;0.40;;
14849;SDS011;7517;48.400;11.770;2022-09-27T09:11:24;0.30;;;0.30;;
14849;SDS011;7517;48.400;11.770;2022-09-27T09:14:30;0.40;;;0.20;;
14849;SDS011;7517;48.400;11.770;2022-09-27T09:17:19;0.57;;;0.57;;
14849;SDS011;7517;48.400;11.770;2022-09-27T09:20:18;0.30;;;0.30;;
14849;SDS011;7517;48.400;11.770;2022-09-27T09:23:03;0.60;;;0.30;;
14849;SDS011;7517;48.400;11.770;2022-09-27T09:25:52;0.60;;;0.30;;
14849;SDS011;7517;48.400;11.770;2022-09-27T09:28:34;0.43;;;0.30;;
14849;SDS011;7517;48.400;11.770;2022-09-27T09:31:21;0.50;;;0.40;;
14849;SDS011;7517;48.400;11.770;2022-09-27T09:34:00;1.07;;;0.30;;
14849;SDS011;7517;48.400;11.770;2022-09-27T09:36:40;0.73;;;0.30;;
14849;SDS011;7517;48.400;11.770;2022-09-27T09:39:14;0.30;;;0.30;;
14849;SDS011;7517;48.400;11.770;2022-09-27T09:41:51;1.10;;;0.30;;
14849;SDS011;7517;48.400;11.770;2022-09-27T09:44:44;0.97;;;0.40;;
14849;SDS011;7517;48.400;11.770;2022-09-27T09:47:20;0.17;;;0.10;;
14849;SDS011;7517;48.400;11.770;2022-09-27T09:50:01;0.23;;;0.20;;
14849;SDS011;7517;48.400;11.770;2022-09-27T09:52:39;0.03;;;0.03;;
14849;SDS011;7517;48.400;11.770;2022-09-27T09:55:15;0.10;;;0.10;;
14849;SDS011;7517;48.400;11.770;2022-09-27T09:57:52;0.20;;;0.10;;
14849;SDS011;7517;48.400;11.770;2022-09-27T10:00:31;0.37;;;0.37;;
14849;SDS011;7517;48.400;11.770;2022-09-27T10:02:58;0.90;;;0.57;;
14849;SDS011;7517;48.400;11.770;2022-09-27T10:05:28;0.37;;;0.30;;
14849;SDS011;7517;48.400;11.770;2022-09-27T10:07:56;0.40;;;0.10;;
14849;SDS011;7517;48.400;11.770;2022-09-27T10:10:27;0.50;;;0.30;;
14849;SDS011;7517;48.400;11.770;2022-09-27T10:12:55;0.37;;;0.10;;
14849;SDS011;7517;48.400;11.770;2022-09-27T10:15:23;0.20;;;0.20;;
14849;SDS011;7517;48.400;11.770;2022-09-27T10:17:57;0.10;;;0.10;;
14849;SDS011;7517;48.400;11.770;2022-09-27T10:20:29;0.60;;;0.33;;
14849;SDS011;7517;48.400;11.770;2022-09-27T10:23:03;0.70;;;0.40;;
14849;SDS011;7517;48.400;11.770;2022-09-27T10:25:44;0.83;;;0.60;;
14849;SDS011;7517;48.400;11.770;2022-09-27T10:28:25;0.33;;;0.33;;
14849;SDS011;7517;48.400;11.770;2022-09-27T10:30:58;1.13;;;0.50;;
14849;SDS011;7517;48.400;11.770;2022-09-27T10:33:31;0.60;;;0.40;;
14849;SDS011;7517;48.400;11.770;2022-09-27T10:36:00;0.50;;;0.30;;
14849;SDS011;7517;48.400;11.770;2022-09-27T10:38:29;0.20;;;0.20;;
14849;SDS011;7517;48.400;11.770;2022-09-27T10:41:14;0.20;;;0.20;;
14849;SDS011;7517;48.400;11.770;2022-09-27T10:43:48;0.43;;;0.17;;
14849;SDS011;7517;48.400;11.770;2022-09-27T10:46:19;0.20;;;0.20;;
14849;SDS011;7517;48.400;11.770;2022-09-27T10:49:12;0.30;;;0.10;;
14849;SDS011;7517;48.400;11.770;2022-09-27T10:51:48;0.20;;;0.17;;
14849;SDS011;7517;48.400;11.770;2022-09-27T10:54:20;0.10;;;0.10;;
14849;SDS011;7517;48.400;11.770;2022-09-27T10:56:55;0.10;;;0.03;;
14849;SDS011;7517;48.400;11.770;2022-09-27T10:59:28;0.40;;;0.20;;
14849;SDS011;7517;48.400;11.770;2022-09-27T11:02:00;0.10;;;0.10;;
14849;SDS011;7517;48.400;11.770;2022-09-27T11:04:31;0.17;;;0.17;;
14849;SDS011;7517;48.400;11.770;2022-09-27T11:07:07;0.37;;;0.10;;
14849;SDS011;7517;48.400;11.770;2022-09-27T11:09:44;0.10;;;0.10;;
14849;SDS011;7517;48.400;11.770;2022-09-27T11:12:19;0.20;;;0.20;;
14849;SDS011;7517;48.400;11.770;2022-09-27T11:14:52;0.10;;;0.10;;
14849;SDS011;7517;48.400;11.770;2022-09-27T11:17:25;0.60;;;0.20;;
14849;SDS011;7517;48.400;11.770;2022-09-27T11:25:57;0.30;;;0.30;;
14849;SDS011;7517;48.400;11.770;2022-09-27T11:28:50;1.13;;;0.17;;
14849;SDS011;7517;48.400;11.770;2022-09-27T11:31:35;0.20;;;0.20;;
14849;SDS011;7517;48.400;11.770;2022-09-27T11:34:19;0.20;;;0.10;;
14849;SDS011;7517;48.400;11.770;2022-09-27T11:37:14;0.20;;;0.20;;
14849;SDS011;7517;48.400;11.770;2022-09-27T11:39:59;0.07;;;0.07;;
14849;SDS011;7517;48.400;11.770;2022-09-27T11:42:45;0.20;;;0.10;;
14849;SDS011;7517;48.400;11.770;2022-09-27T11:45:33;0.10;;;0.10;;
14849;SDS011;7517;48.400;11.770;2022-09-27T11:48:26;0.10;;;0.10;;
14849;SDS011;7517;48.400;11.770;2022-09-27T11:51:24;0.10;;;0.10;;
14849;SDS011;7517;48.400;11.770;2022-09-27T11:54:17;0.40;;;0.30;;
14849;SDS011;7517;48.400;11.770;2022-09-27T11:57:01;0.20;;;0.10;;
14849;SDS011;7517;48.400;11.770;2022-09-27T11:59:47;0.20;;;0.20;;
14849;SDS011;7517;48.400;11.770;2022-09-27T12:02:44;0.00;;;0.00;;
14849;SDS011;7517;48.400;11.770;2022-09-27T12:05:38;0.10;;;0.10;;
14849;SDS011;7517;48.400;11.770;2022-09-27T12:08:24;0.10;;;0.10;;
14849;SDS011;7517;48.400;11.770;2022-09-27T12:11:08;0.20;;;0.20;;
14849;SDS011;7517;48.400;11.770;2022-09-27T12:13:43;0.67;;;0.20;;
14849;SDS011;7517;48.400;11.770;2022-09-27T12:16:16;0.10;;;0.10;;
14849;SDS011;7517;48.400;11.770;2022-09-27T12:18:46;0.33;;;0.10;;
14849;SDS011;7517;48.400;11.770;2022-09-27T12:21:16;0.10;;;0.10;;
14849;SDS011;7517;48.400;11.770;2022-09-27T12:23:46;0.13;;;0.13;;
14849;SDS011;7517;48.400;11.770;2022-09-27T12:26:21;2.53;;;0.20;;
14849;SDS011;7517;48.400;11.770;2022-09-27T12:28:53;0.30;;;0.13;;
14849;SDS011;7517;48.400;11.770;2022-09-27T12:31:27;0.17;;;0.10;;
14849;SDS011;7517;48.400;11.770;2022-09-27T12:34:02;0.07;;;0.00;;
14849;SDS011;7517;48.400;11.770;2022-09-27T12:36:40;0.10;;;0.10;;
14849;SDS011;7517;48.400;11.770;2022-09-27T12:39:14;0.10;;;0.00;;
14849;SDS011;7517;48.400;11.770;2022-09-27T12:41:49;0.33;;;0.33;;
14849;SDS011;7517;48.400;11.770;2022-09-27T12:44:26;0.20;;;0.20;;
14849;SDS011;7517;48.400;11.770;2022-09-27T12:47:03;0.00;;;0.00;;
14849;SDS011;7517;48.400;11.770;2022-09-27T12:49:47;0.10;;;0.10;;
14849;SDS011;7517;48.400;11.770;2022-09-27T12:52:29;0.20;;;0.10;;
14849;SDS011;7517;48.400;11.770;2022-09-27T12:55:09;0.40;;;0.40;;
14849;SDS011;7517;48.400;11.770;2022-09-27T12:58:23;0.20;;;0.20;;
14849;SDS011;7517;48.400;11.770;2022-09-27T13:01:33;0.20;;;0.20;;
14849;SDS011;7517;48.400;11.770;2022-09-27T13:07:22;0.40;;;0.20;;
14849;SDS011;7517;48.400;11.770;2022-09-27T13:10:15;0.50;;;0.40;;
14849;SDS011;7517;48.400;11.770;2022-09-27T13:13:11;0.43;;;0.43;;
14849;SDS011;7517;48.400;11.770;2022-09-27T13:15:46;0.63;;;0.40;;
14849;SDS011;7517;48.400;11.770;2022-09-27T13:36:29;0.10;;;0.10;;
14849;SDS011;7517;48.400;11.770;2022-09-27T13:39:19;0.23;;;0.20;;
14849;SDS011;7517;48.400;11.770;2022-09-27T13:41:54;0.97;;;0.30;;
14849;SDS011;7517;48.400;11.770;2022-09-27T13:44:45;0.20;;;0.20;;
14849;SDS011;7517;48.400;11.770;2022-09-27T13:47:33;0.27;;;0.20;;
14849;SDS011;7517;48.400;11.770;2022-09-27T13:50:12;0.93;;;0.37;;
14849;SDS011;7517;48.400;11.770;2022-09-27T13:52:55;0.27;;;0.27;;
14849;SDS011;7517;48.400;11.770;2022-09-27T13:55:41;1.03;;;0.40;;
14849;SDS011;7517;48.400;11.770;2022-09-27T14:01:02;0.50;;;0.27;;
14849;SDS011;7517;48.400;11.770;2022-09-27T14:03:54;0.50;;;0.30;;
14849;SDS011;7517;48.400;11.770;2022-09-27T14:06:28;1.07;;;0.40;;
14849;SDS011;7517;48.400;11.770;2022-09-27T14:09:01;0.40;;;0.30;;
14849;SDS011;7517;48.400;11.770;2022-09-27T14:11:33;1.13;;;0.37;;
14849;SDS011;7517;48.400;11.770;2022-09-27T14:14:06;0.30;;;0.30;;
14849;SDS011;7517;48.400;11.770;2022-09-27T14:16:43;0.50;;;0.20;;
14849;SDS011;7517;48.400;11.770;2022-09-27T14:19:13;0.30;;;0.30;;
14849;SDS011;7517;48.400;11.770;2022-09-27T14:21:44;0.40;;;0.40;;
14849;SDS011;7517;48.400;11.770;2022-09-27T14:24:20;2.33;;;0.53;;
14849;SDS011;7517;48.400;11.770;2022-09-27T14:27:10;0.50;;;0.50;;
14849;SDS011;7517;48.400;11.770;2022-09-27T14:29:42;0.60;;;0.53;;
14849;SDS011;7517;48.400;11.770;2022-09-27T14:32:14;0.50;;;0.50;;
14849;SDS011;7517;48.400;11.770;2022-09-27T14:34:45;1.27;;;0.70;;
14849;SDS011;7517;48.400;11.770;2022-09-27T14:37:28;0.63;;;0.60;;
14849;SDS011;7517;48.400;11.770;2022-09-27T14:39:59;0.20;;;0.20;;
14849;SDS011;7517;48.400;11.770;2022-09-27T14:42:31;0.20;;;0.20;;
14849;SDS011;7517;48.400;11.770;2022-09-27T14:45:06;0.63;;;0.10;;
14849;SDS011;7517;48.400;11.770;2022-09-27T14:47:45;0.20;;;0.20;;
14849;SDS011;7517;48.400;11.770;2022-09-27T14:50:17;0.50;;;0.20;;
14849;SDS011;7517;48.400;11.770;2022-09-27T14:52:49;0.10;;;0.10;;
14849;SDS011;7517;48.400;11.770;2022-09-27T14:55:20;0.40;;;0.40;;
14849;SDS011;7517;48.400;11.770;2022-09-27T14:57:50;0.40;;;0.40;;
14849;SDS011;7517;48.400;11.770;2022-09-27T15:00:20;1.33;;;0.90;;
14849;SDS011;7517;48.400;11.770;2022-09-27T15:02:50;0.80;;;0.40;;
14849;SDS011;7517;48.400;11.770;2022-09-27T15:05:22;0.63;;;0.60;;
14849;SDS011;7517;48.400;11.770;2022-09-27T15:07:52;1.00;;;0.87;;
14849;SDS011;7517;48.400;11.770;2022-09-27T15:10:22;0.30;;;0.30;;
14849;SDS011;7517;48.400;11.770;2022-09-27T15:12:55;0.53;;;0.30;;
14849;SDS011;7517;48.400;11.770;2022-09-27T15:15:26;0.80;;;0.40;;
14849;SDS011;7517;48.400;11.770;2022-09-27T15:17:56;0.67;;;0.30;;
14849;SDS011;7517;48.400;11.770;2022-09-27T15:20:26;0.57;;;0.57;;
14849;SDS011;7517;48.400;11.770;2022-09-27T15:22:56;0.30;;;0.30;;
14849;SDS011;7517;48.400;11.770;2022-09-27T15:25:26;0.30;;;0.30;;
14849;SDS011;7517;48.400;11.770;2022-09-27T15:28:00;0.40;;;0.40;;
14849;SDS011;7517;48.400;11.770;2022-09-27T15:30:35;0.40;;;0.40;;
14849;SDS011;7517;48.400;11.770;2022-09-27T15:33:04;0.60;;;0.50;;
14849;SDS011;7517;48.400;11.770;2022-09-27T15:35:47;1.07;;;0.83;;
14849;SDS011;7517;48.400;11.770;2022-09-27T15:38:24;0.50;;;0.50;;
14849;SDS011;7517;48.400;11.770;2022-09-27T15:41:02;0.50;;;0.40;;
14849;SDS011;7517;48.400;11.770;2022-09-27T15:43:38;0.30;;;0.30;;
14849;SDS011;7517;48.400;11.770;2022-09-27T15:46:32;0.63;;;0.40;;
14849;SDS011;7517;48.400;11.770;2022-09-27T15:49:18;0.50;;;0.50;;
14849;SDS011;7517;48.400;11.770;2022-09-27T15:52:00;0.80;;;0.40;;
14849;SDS011;7517;48.400;11.770;2022-09-27T15:54:31;0.50;;;0.50;;
14849;SDS011;7517;48.400;11.770;2022-09-27T15:57:01;0.83;;;0.70;;
14849;SDS011;7517;48.400;11.770;2022-09-27T15:59:31;1.37;;;0.50;;
14849;SDS011;7517;48.400;11.770;2022-09-27T16:02:01;0.67;;;0.60;;
14849;SDS011;7517;48.400;11.770;2022-09-27T16:04:38;0.70;;;0.70;;